sensor_id;sensor_type;location;lat;lon;timestamp;pressure;altitude;pressure_sealevel;temperature
82780;BMP280;72511;45.120;20.720;2024-02-14T00:01:44;100643.72;;;6.78
82780;BMP280;72511;45.120;20.720;2024-02-14T00:11:45;100670.59;;;6.60
82780;BMP280;72511;45.120;20.720;2024-02-14T00:21:46;100686.63;;;6.29
82780;BMP280;72511;45.120;20.720;2024-02-14T00:31:48;100696.91;;;6.13
82780;BMP280;72511;45.120;20.720;2024-02-14T00:41:49;100700.34;;;6.06
82780;BMP280;72511;45.120;20.720;2024-02-14T00:51:53;100701.09;;;6.03
82780;BMP280;72511;45.120;20.720;2024-02-14T01:01:54;100714.19;;;6.08
82780;BMP280;72511;45.120;20.720;2024-02-14T01:11:56;100716.81;;;6.01
82780;BMP280;72511;45.120;20.720;2024-02-14T01:21:57;100700.56;;;5.73
82780;BMP280;72511;45.120;20.720;2024-02-14T01:31:58;100734.25;;;5.67
82780;BMP280;72511;45.120;20.720;2024-02-14T01:42:00;100735.38;;;5.59
82780;BMP280;72511;45.120;20.720;2024-02-14T01:52:02;100739.44;;;5.39
82780;BMP280;72511;45.120;20.720;2024-02-14T02:02:04;100734.84;;;5.03
82780;BMP280;72511;45.120;20.720;2024-02-14T02:12:10;100746.97;;;4.90
82780;BMP280;72511;45.120;20.720;2024-02-14T02:22:12;100744.50;;;4.71
82780;BMP280;72511;45.120;20.720;2024-02-14T02:32:13;100767.47;;;5.09
82780;BMP280;72511;45.120;20.720;2024-02-14T02:42:16;100767.03;;;5.03
82780;BMP280;72511;45.120;20.720;2024-02-14T02:52:18;100783.88;;;4.67
82780;BMP280;72511;45.120;20.720;2024-02-14T03:02:19;100804.63;;;4.41
82780;BMP280;72511;45.120;20.720;2024-02-14T03:12:21;100810.16;;;4.29
82780;BMP280;72511;45.120;20.720;2024-02-14T03:22:24;100825.25;;;4.14
82780;BMP280;72511;45.120;20.720;2024-02-14T03:32:25;100843.16;;;4.07
82780;BMP280;72511;45.120;20.720;2024-02-14T03:42:27;100847.47;;;3.92
82780;BMP280;72511;45.120;20.720;2024-02-14T03:52:28;100864.09;;;3.78
82780;BMP280;72511;45.120;20.720;2024-02-14T04:02:33;100873.53;;;3.72
82780;BMP280;72511;45.120;20.720;2024-02-14T04:12:34;100885.72;;;3.70
82780;BMP280;72511;45.120;20.720;2024-02-14T04:22:35;100899.09;;;3.70
82780;BMP280;72511;45.120;20.720;2024-02-14T04:32:36;100908.25;;;3.88
82780;BMP280;72511;45.120;20.720;2024-02-14T04:42:38;100915.13;;;4.08
82780;BMP280;72511;45.120;20.720;2024-02-14T04:52:39;100921.44;;;4.23
82780;BMP280;72511;45.120;20.720;2024-02-14T05:02:41;100930.28;;;4.23
82780;BMP280;72511;45.120;20.720;2024-02-14T05:12:42;100947.28;;;3.89
82780;BMP280;72511;45.120;20.720;2024-02-14T05:22:44;100937.56;;;3.62
82780;BMP280;72511;45.120;20.720;2024-02-14T05:32:45;100961.09;;;3.53
82780;BMP280;72511;45.120;20.720;2024-02-14T05:42:47;100974.81;;;3.51
82780;BMP280;72511;45.120;20.720;2024-02-14T05:52:48;100992.50;;;3.37
82780;BMP280;72511;45.120;20.720;2024-02-14T06:02:49;100999.53;;;3.45
82780;BMP280;72511;45.120;20.720;2024-02-14T06:12:51;101005.44;;;5.64
82780;BMP280;72511;45.120;20.720;2024-02-14T06:22:52;100995.34;;;7.70
82780;BMP280;72511;45.120;20.720;2024-02-14T06:32:55;101012.28;;;8.97
82780;BMP280;72511;45.120;20.720;2024-02-14T06:43:01;101015.59;;;10.01
82780;BMP280;72511;45.120;20.720;2024-02-14T06:53:03;101028.97;;;10.96
82780;BMP280;72511;45.120;20.720;2024-02-14T07:03:05;101040.25;;;12.04
82780;BMP280;72511;45.120;20.720;2024-02-14T07:13:06;101047.28;;;12.67
82780;BMP280;72511;45.120;20.720;2024-02-14T07:23:08;101057.19;;;13.35
82780;BMP280;72511;45.120;20.720;2024-02-14T07:33:09;101050.66;;;13.81
82780;BMP280;72511;45.120;20.720;2024-02-14T07:43:11;101056.13;;;13.97
82780;BMP280;72511;45.120;20.720;2024-02-14T07:53:13;101050.13;;;14.34
82780;BMP280;72511;45.120;20.720;2024-02-14T08:03:14;101064.97;;;14.01
82780;BMP280;72511;45.120;20.720;2024-02-14T08:13:16;101064.84;;;14.36
82780;BMP280;72511;45.120;20.720;2024-02-14T08:23:18;101073.06;;;14.20
82780;BMP280;72511;45.120;20.720;2024-02-14T08:33:21;101065.75;;;14.46
82780;BMP280;72511;45.120;20.720;2024-02-14T08:43:22;101044.28;;;13.71
82780;BMP280;72511;45.120;20.720;2024-02-14T08:53:26;101069.09;;;12.40
82780;BMP280;72511;45.120;20.720;2024-02-14T09:03:28;101065.78;;;10.93
82780;BMP280;72511;45.120;20.720;2024-02-14T09:13:32;101069.91;;;10.68
82780;BMP280;72511;45.120;20.720;2024-02-14T09:23:33;101060.94;;;10.78
82780;BMP280;72511;45.120;20.720;2024-02-14T09:33:34;101075.69;;;10.70
82780;BMP280;72511;45.120;20.720;2024-02-14T09:43:44;101073.53;;;10.51
82780;BMP280;72511;45.120;20.720;2024-02-14T09:53:45;101048.47;;;10.84
82780;BMP280;72511;45.120;20.720;2024-02-14T10:03:47;101045.31;;;10.89
82780;BMP280;72511;45.120;20.720;2024-02-14T10:13:48;101045.28;;;10.92
82780;BMP280;72511;45.120;20.720;2024-02-14T10:23:51;101055.81;;;11.17
82780;BMP280;72511;45.120;20.720;2024-02-14T10:33:55;101044.38;;;11.32
82780;BMP280;72511;45.120;20.720;2024-02-14T10:43:57;101048.06;;;11.49
82780;BMP280;72511;45.120;20.720;2024-02-14T10:54:00;101042.19;;;11.54
82780;BMP280;72511;45.120;20.720;2024-02-14T11:04:04;101021.81;;;11.12
82780;BMP280;72511;45.120;20.720;2024-02-14T11:14:06;101033.34;;;11.50
82780;BMP280;72511;45.120;20.720;2024-02-14T11:24:07;101020.28;;;11.41
82780;BMP280;72511;45.120;20.720;2024-02-14T11:34:16;101031.66;;;11.29
82780;BMP280;72511;45.120;20.720;2024-02-14T11:44:21;101003.75;;;11.32
82780;BMP280;72511;45.120;20.720;2024-02-14T11:54:27;101024.69;;;12.08
82780;BMP280;72511;45.120;20.720;2024-02-14T12:04:28;101022.94;;;12.21
82780;BMP280;72511;45.120;20.720;2024-02-14T12:14:29;101031.22;;;12.33
82780;BMP280;72511;45.120;20.720;2024-02-14T12:24:31;101020.41;;;11.87
82780;BMP280;72511;45.120;20.720;2024-02-14T12:34:33;101015.97;;;11.74
82780;BMP280;72511;45.120;20.720;2024-02-14T12:44:34;101018.19;;;12.48
82780;BMP280;72511;45.120;20.720;2024-02-14T12:54:36;101026.50;;;11.91
82780;BMP280;72511;45.120;20.720;2024-02-14T13:04:38;101011.88;;;11.85
82780;BMP280;72511;45.120;20.720;2024-02-14T13:14:40;101028.97;;;11.82
82780;BMP280;72511;45.120;20.720;2024-02-14T13:24:42;101026.56;;;11.88
82780;BMP280;72511;45.120;20.720;2024-02-14T13:34:45;101021.31;;;12.00
82780;BMP280;72511;45.120;20.720;2024-02-14T13:44:46;101009.75;;;11.47
82780;BMP280;72511;45.120;20.720;2024-02-14T13:54:48;101021.47;;;10.77
82780;BMP280;72511;45.120;20.720;2024-02-14T14:04:49;101022.09;;;10.91
82780;BMP280;72511;45.120;20.720;2024-02-14T14:14:51;101018.91;;;10.63
82780;BMP280;72511;45.120;20.720;2024-02-14T14:24:53;101028.06;;;10.72
82780;BMP280;72511;45.120;20.720;2024-02-14T14:34:54;101033.84;;;10.34
82780;BMP280;72511;45.120;20.720;2024-02-14T14:44:56;101023.13;;;9.69
82780;BMP280;72511;45.120;20.720;2024-02-14T14:54:59;101043.66;;;9.63
82780;BMP280;72511;45.120;20.720;2024-02-14T15:05:01;101055.75;;;9.34
82780;BMP280;72511;45.120;20.720;2024-02-14T15:15:03;101039.66;;;8.92
82780;BMP280;72511;45.120;20.720;2024-02-14T15:25:05;101055.88;;;8.81
82780;BMP280;72511;45.120;20.720;2024-02-14T15:35:07;101074.81;;;8.50
82780;BMP280;72511;45.120;20.720;2024-02-14T15:45:09;101089.81;;;8.26
82780;BMP280;72511;45.120;20.720;2024-02-14T15:55:17;101097.88;;;8.09
82780;BMP280;72511;45.120;20.720;2024-02-14T16:05:19;101086.91;;;7.56
82780;BMP280;72511;45.120;20.720;2024-02-14T16:15:20;101093.66;;;7.26
82780;BMP280;72511;45.120;20.720;2024-02-14T16:25:22;101108.22;;;7.11
82780;BMP280;72511;45.120;20.720;2024-02-14T16:35:23;101111.06;;;6.88
82780;BMP280;72511;45.120;20.720;2024-02-14T16:45:25;101101.94;;;6.52
82780;BMP280;72511;45.120;20.720;2024-02-14T16:55:26;101112.09;;;6.29
82780;BMP280;72511;45.120;20.720;2024-02-14T17:05:28;101136.19;;;6.19
82780;BMP280;72511;45.120;20.720;2024-02-14T17:15:29;101132.44;;;5.97
82780;BMP280;72511;45.120;20.720;2024-02-14T17:25:31;101136.19;;;5.89
82780;BMP280;72511;45.120;20.720;2024-02-14T17:35:32;101150.28;;;5.79
82780;BMP280;72511;45.120;20.720;2024-02-14T17:45:34;101131.97;;;5.59
82780;BMP280;72511;45.120;20.720;2024-02-14T17:55:37;101126.31;;;5.41
82780;BMP280;72511;45.120;20.720;2024-02-14T18:05:39;101146.31;;;5.44
82780;BMP280;72511;45.120;20.720;2024-02-14T18:15:43;101148.00;;;5.29
82780;BMP280;72511;45.120;20.720;2024-02-14T18:25:45;101153.59;;;5.17
82780;BMP280;72511;45.120;20.720;2024-02-14T18:35:46;101147.25;;;5.06
82780;BMP280;72511;45.120;20.720;2024-02-14T18:45:48;101151.75;;;4.99
82780;BMP280;72511;45.120;20.720;2024-02-14T18:55:49;101175.47;;;4.97
82780;BMP280;72511;45.120;20.720;2024-02-14T19:05:50;101146.63;;;4.68
82780;BMP280;72511;45.120;20.720;2024-02-14T19:15:53;101179.38;;;4.80
82780;BMP280;72511;45.120;20.720;2024-02-14T19:25:55;101184.97;;;4.72
82780;BMP280;72511;45.120;20.720;2024-02-14T19:35:57;101168.47;;;4.51
82780;BMP280;72511;45.120;20.720;2024-02-14T19:45:58;101175.19;;;4.41
82780;BMP280;72511;45.120;20.720;2024-02-14T19:56:00;101196.63;;;4.41
82780;BMP280;72511;45.120;20.720;2024-02-14T20:06:01;101194.38;;;4.24
82780;BMP280;72511;45.120;20.720;2024-02-14T20:16:07;101195.28;;;4.13
82780;BMP280;72511;45.120;20.720;2024-02-14T20:26:09;101204.03;;;4.10
82780;BMP280;72511;45.120;20.720;2024-02-14T20:36:11;101197.56;;;3.95
82780;BMP280;72511;45.120;20.720;2024-02-14T20:46:13;101195.13;;;3.86
82780;BMP280;72511;45.120;20.720;2024-02-14T20:56:14;101194.09;;;3.75
82780;BMP280;72511;45.120;20.720;2024-02-14T21:06:15;101187.94;;;3.75
82780;BMP280;72511;45.120;20.720;2024-02-14T21:16:17;101174.16;;;3.57
82780;BMP280;72511;45.120;20.720;2024-02-14T21:26:19;101175.47;;;3.32
82780;BMP280;72511;45.120;20.720;2024-02-14T21:36:20;101182.16;;;2.80
82780;BMP280;72511;45.120;20.720;2024-02-14T21:46:24;101166.13;;;2.68
82780;BMP280;72511;45.120;20.720;2024-02-14T21:56:26;101173.78;;;2.81
82780;BMP280;72511;45.120;20.720;2024-02-14T22:06:27;101184.31;;;2.62
82780;BMP280;72511;45.120;20.720;2024-02-14T22:16:29;101179.31;;;2.88
82780;BMP280;72511;45.120;20.720;2024-02-14T22:26:30;101180.50;;;2.91
82780;BMP280;72511;45.120;20.720;2024-02-14T22:36:33;101174.47;;;2.78
82780;BMP280;72511;45.120;20.720;2024-02-14T22:46:37;101179.03;;;2.78
82780;BMP280;72511;45.120;20.720;2024-02-14T22:56:40;101183.75;;;2.69
82780;BMP280;72511;45.120;20.720;2024-02-14T23:06:41;101159.44;;;2.74
82780;BMP280;72511;45.120;20.720;2024-02-14T23:16:43;101166.69;;;2.73
82780;BMP280;72511;45.120;20.720;2024-02-14T23:26:46;101151.88;;;2.21
82780;BMP280;72511;45.120;20.720;2024-02-14T23:36:49;101166.13;;;2.13
82780;BMP280;72511;45.120;20.720;2024-02-14T23:46:51;101171.25;;;2.18
82780;BMP280;72511;45.120;20.720;2024-02-14T23:56:53;101156.78;;;2.07
